createdAt,value
2018-04-26T00:01:37.778Z,86.00
2018-04-26T00:04:06.026Z,86.30
2018-04-26T00:06:33.550Z,86.20
2018-04-26T00:09:01.798Z,87.00
2018-04-26T00:11:29.319Z,87.00
2018-04-26T00:13:56.858Z,87.50
2018-04-26T00:16:24.370Z,87.00
2018-04-26T00:18:51.854Z,86.90
2018-04-26T00:21:19.365Z,87.00
2018-04-26T00:23:46.838Z,87.10
2018-04-26T00:26:14.386Z,87.10
2018-04-26T00:28:41.874Z,87.40
2018-04-26T00:31:09.375Z,87.50
2018-04-26T00:33:37.661Z,87.90
2018-04-26T00:36:05.901Z,88.90
2018-04-26T00:38:33.421Z,88.90
2018-04-26T00:41:01.672Z,89.00
2018-04-26T00:43:29.202Z,88.90
2018-04-26T00:45:56.680Z,88.90
2018-04-26T00:48:24.198Z,89.40
2018-04-26T00:50:51.670Z,89.50
2018-04-26T00:53:19.196Z,89.90
2018-04-26T00:55:46.679Z,90.00
2018-04-26T00:58:14.193Z,90.20
2018-04-26T01:00:41.673Z,90.40
2018-04-26T01:03:09.975Z,90.70
2018-04-26T01:05:37.461Z,90.70
2018-04-26T01:08:04.938Z,91.00
2018-04-26T01:10:32.450Z,91.20
2018-04-26T01:12:59.935Z,91.40
2018-04-26T01:15:27.469Z,91.40
2018-04-26T01:17:54.943Z,91.70
2018-04-26T01:20:22.457Z,92.00
2018-04-26T01:22:49.934Z,92.00
2018-04-26T01:25:18.214Z,92.40
2018-04-26T01:27:45.711Z,92.30
2018-04-26T01:30:13.213Z,92.50
2018-04-26T01:32:40.701Z,92.60
2018-04-26T01:35:08.233Z,92.60
2018-04-26T01:37:47.566Z,92.90
2018-04-26T01:40:16.362Z,93.20
2018-04-26T01:42:43.838Z,93.20
2018-04-26T01:45:11.327Z,93.50
2018-04-26T01:47:38.842Z,93.80
2018-04-26T01:50:06.326Z,94.10
2018-04-26T01:52:33.850Z,94.60
2018-04-26T01:55:02.974Z,94.40
2018-04-26T01:57:30.489Z,94.40
2018-04-26T01:59:57.969Z,94.30
2018-04-26T02:02:26.246Z,94.10
2018-04-26T02:04:53.717Z,94.20
2018-04-26T02:07:21.231Z,94.30
2018-04-26T02:09:48.722Z,94.00
2018-04-26T02:12:16.230Z,94.30
2018-04-26T02:14:43.709Z,94.70
2018-04-26T02:17:11.985Z,95.10
2018-04-26T02:19:39.459Z,95.10
2018-04-26T02:22:06.971Z,95.20
2018-04-26T02:24:34.454Z,95.80
2018-04-26T02:27:01.984Z,96.30
2018-04-26T02:29:30.230Z,96.90
2018-04-26T02:31:57.778Z,96.90
2018-04-26T02:34:25.268Z,97.00
2018-04-26T02:36:52.741Z,97.40
2018-04-26T02:39:20.258Z,97.50
2018-04-26T02:41:47.733Z,97.20
2018-04-26T02:44:16.015Z,96.40
2018-04-26T02:46:44.266Z,96.30
2018-04-26T02:49:11.791Z,96.00
2018-04-26T02:51:39.269Z,95.60
2018-04-26T02:54:06.791Z,95.50
2018-04-26T02:56:34.262Z,95.30
2018-04-26T02:59:01.776Z,95.30
2018-04-26T03:01:29.301Z,95.10
2018-04-26T03:03:57.590Z,94.90
2018-04-26T03:06:25.061Z,94.90
2018-04-26T03:08:52.590Z,94.70
2018-04-26T03:11:20.083Z,94.40
2018-04-26T03:13:47.631Z,94.30
2018-04-26T03:16:15.106Z,94.20
2018-04-26T03:18:42.581Z,94.30
2018-04-26T03:21:10.101Z,94.40
2018-04-26T03:23:37.588Z,94.30
2018-04-26T03:26:05.847Z,94.30
2018-04-26T03:28:33.329Z,94.30
2018-04-26T03:31:00.837Z,94.30
2018-04-26T03:33:28.318Z,94.30
2018-04-26T03:35:55.867Z,94.60
2018-04-26T03:38:24.110Z,94.90
2018-04-26T03:40:51.629Z,94.90
2018-04-26T03:43:19.901Z,94.70
2018-04-26T03:45:47.418Z,94.60
2018-04-26T03:48:14.892Z,94.80
2018-04-26T03:50:42.417Z,94.50
2018-04-26T03:53:09.895Z,94.50
2018-04-26T03:55:38.388Z,94.80
2018-04-26T03:58:06.642Z,95.30
2018-04-26T04:00:46.169Z,95.30
2018-04-26T04:03:25.509Z,95.70
2018-04-26T04:08:55.447Z,96.10
2018-04-26T04:11:23.726Z,96.00
2018-04-26T04:13:51.207Z,96.00
2018-04-26T04:16:19.450Z,96.10
2018-04-26T04:18:46.965Z,96.10
2018-04-26T04:21:14.448Z,96.00
2018-04-26T04:23:41.962Z,96.10
2018-04-26T04:26:09.438Z,95.50
2018-04-26T04:28:36.941Z,95.40
2018-04-26T04:31:04.431Z,95.20
2018-04-26T04:33:32.709Z,95.50
2018-04-26T04:36:00.953Z,96.00
2018-04-26T04:38:28.467Z,96.00
2018-04-26T04:40:56.789Z,96.70
2018-04-26T04:43:24.233Z,96.40
2018-04-26T04:45:52.476Z,96.60
2018-04-26T04:48:19.990Z,96.60
2018-04-26T04:50:47.466Z,96.70
2018-04-26T04:53:15.766Z,97.00
2018-04-26T04:55:43.248Z,97.00
2018-04-26T04:58:10.774Z,96.90
2018-04-26T05:00:38.260Z,97.00
2018-04-26T05:03:05.773Z,97.30
2018-04-26T05:05:33.246Z,97.20
2018-04-26T05:08:00.810Z,97.10
2018-04-26T05:10:28.297Z,97.30
2018-04-26T05:12:55.794Z,97.30
2018-04-26T05:15:23.312Z,97.50
2018-04-26T05:17:50.809Z,97.40
2018-04-26T05:20:18.322Z,97.50
2018-04-26T05:22:45.821Z,97.60
2018-04-26T05:25:14.097Z,97.40
2018-04-26T05:27:42.342Z,97.20
2018-04-26T05:30:09.843Z,97.20
2018-04-26T05:32:37.322Z,97.20
2018-04-26T05:35:04.843Z,97.00
2018-04-26T05:37:32.329Z,95.60
2018-04-26T05:39:59.875Z,95.40
2018-04-26T05:42:27.398Z,95.00
2018-04-26T05:44:54.913Z,95.10
2018-04-26T05:47:22.483Z,94.90
2018-04-26T05:49:49.962Z,96.10
2018-04-26T05:52:17.461Z,96.40
2018-04-26T05:54:44.945Z,96.50
2018-04-26T05:57:12.473Z,96.00
2018-04-26T05:59:39.979Z,95.70
2018-04-26T06:02:07.551Z,94.90
2018-04-26T06:04:35.041Z,94.00
2018-04-26T06:07:02.566Z,93.60
2018-04-26T06:09:30.057Z,92.50
2018-04-26T06:11:57.572Z,92.00
2018-04-26T06:14:25.821Z,90.80
2018-04-26T06:16:53.409Z,90.80
2018-04-26T06:19:20.851Z,90.50
2018-04-26T06:21:48.375Z,89.70
2018-04-26T06:24:16.622Z,74.10
2018-04-26T06:26:44.145Z,74.00
2018-04-26T06:29:12.389Z,66.10
2018-04-26T06:31:39.908Z,66.10
2018-04-26T06:34:08.153Z,74.10
2018-04-26T06:36:35.729Z,74.20
2018-04-26T06:39:03.242Z,79.50
2018-04-26T06:41:31.486Z,84.80
2018-04-26T06:43:59.010Z,84.70
2018-04-26T06:46:26.494Z,86.80
2018-04-26T06:48:54.012Z,88.10
2018-04-26T06:51:21.510Z,88.30
2018-04-26T06:53:49.813Z,89.50
2018-04-26T06:56:17.308Z,89.50
2018-04-26T06:58:44.821Z,88.10
2018-04-26T07:01:12.311Z,87.50
2018-04-26T07:03:40.594Z,85.00
2018-04-26T07:06:08.841Z,83.70
2018-04-26T07:08:36.366Z,83.60
2018-04-26T07:11:04.610Z,82.10
2018-04-26T07:13:32.106Z,82.10
2018-04-26T07:15:59.625Z,81.00
2018-04-26T07:18:27.116Z,77.40
2018-04-26T07:20:54.646Z,71.20
2018-04-26T07:23:22.131Z,71.20
2018-04-26T07:25:49.652Z,75.00
2018-04-26T07:28:17.174Z,74.00
2018-04-26T07:30:44.674Z,69.60
2018-04-26T07:33:12.157Z,68.60
2018-04-26T07:35:39.676Z,65.50
2018-04-26T07:38:07.155Z,61.50
2018-04-26T07:40:34.669Z,54.40
2018-04-26T07:43:02.157Z,48.30
2018-04-26T07:45:29.684Z,46.90
2018-04-26T07:47:57.311Z,49.10
2018-04-26T07:50:24.832Z,52.00
2018-04-26T07:52:52.323Z,56.40
2018-04-26T07:55:19.841Z,57.50
2018-04-26T07:57:48.094Z,58.80
2018-04-26T08:00:15.646Z,58.90
2018-04-26T08:02:43.126Z,60.30
2018-04-26T08:05:10.606Z,61.40
2018-04-26T08:07:38.138Z,65.10
2018-04-26T08:10:05.638Z,65.80
2018-04-26T08:12:33.157Z,64.30
2018-04-26T08:15:01.406Z,62.60
2018-04-26T08:17:29.681Z,66.00
2018-04-26T08:19:57.172Z,65.80
2018-04-26T08:22:24.709Z,68.70
2018-04-26T08:24:52.204Z,69.20
2018-04-26T08:27:19.732Z,69.50
2018-04-26T08:29:47.229Z,69.90
2018-04-26T08:32:14.750Z,70.20
2018-04-26T08:34:43.006Z,58.20
2018-04-26T08:37:10.560Z,58.00
2018-04-26T08:39:38.046Z,56.00
2018-04-26T08:42:05.559Z,57.40
2018-04-26T08:44:33.890Z,61.10
2018-04-26T08:47:01.426Z,60.90
2018-04-26T08:49:28.921Z,62.70
2018-04-26T08:51:56.405Z,63.20
2018-04-26T08:54:23.921Z,63.10
2018-04-26T08:56:51.402Z,60.00
2018-04-26T08:59:18.910Z,55.30
2018-04-26T09:01:46.389Z,52.70
2018-04-26T09:04:13.925Z,49.40
2018-04-26T09:06:42.206Z,51.00
2018-04-26T09:09:09.705Z,51.10
2018-04-26T09:11:37.191Z,52.50
2018-04-26T09:14:04.701Z,55.80
2018-04-26T09:16:32.183Z,58.60
2018-04-26T09:18:59.702Z,59.80
2018-04-26T09:21:27.178Z,62.80
2018-04-26T09:23:54.699Z,62.70
2018-04-26T09:26:22.185Z,64.80
2018-04-26T09:28:50.486Z,65.80
2018-04-26T09:31:17.974Z,65.80
2018-04-26T09:33:45.454Z,65.50
2018-04-26T09:36:13.075Z,67.40
2018-04-26T09:38:40.624Z,67.90
2018-04-26T09:41:08.101Z,67.40
2018-04-26T09:43:35.593Z,62.50
2018-04-26T09:46:03.870Z,51.30
2018-04-26T09:48:31.359Z,51.30
2018-04-26T09:50:59.645Z,47.50
2018-04-26T09:53:27.900Z,45.10
2018-04-26T09:55:55.435Z,45.10
2018-04-26T09:58:22.977Z,43.30
2018-04-26T10:00:53.073Z,45.90
2018-04-26T10:03:20.557Z,45.80
2018-04-26T10:05:53.793Z,46.50
2018-04-26T10:08:22.046Z,45.60
2018-04-26T10:10:49.549Z,45.60
2018-04-26T10:13:17.048Z,46.40
2018-04-26T10:15:44.543Z,47.20
2018-04-26T10:18:12.045Z,48.70
2018-04-26T10:20:39.548Z,50.60
2018-04-26T10:23:07.070Z,51.10
2018-04-26T10:25:34.569Z,50.30
2018-04-26T10:28:02.088Z,49.70
2018-04-26T10:30:29.559Z,49.20
2018-04-26T10:32:57.045Z,48.20
2018-04-26T10:35:24.623Z,49.90
2018-04-26T10:37:52.814Z,52.20
2018-04-26T10:40:20.318Z,52.20
2018-04-26T10:42:48.573Z,58.40
2018-04-26T10:45:16.069Z,58.50
2018-04-26T10:47:44.317Z,61.20
2018-04-26T10:50:11.813Z,61.20
2018-04-26T10:52:39.296Z,60.20
2018-04-26T10:55:07.566Z,58.50
2018-04-26T10:57:35.062Z,58.40
2018-04-26T11:00:03.336Z,52.30
2018-04-26T11:02:30.814Z,52.30
2018-04-26T11:04:58.316Z,51.50
2018-04-26T11:07:25.794Z,49.40
2018-04-26T11:09:53.287Z,46.80
2018-04-26T11:12:20.793Z,47.00
2018-04-26T11:14:48.281Z,48.40
2018-04-26T11:17:16.599Z,49.80
2018-04-26T11:19:44.053Z,49.80
2018-04-26T11:22:11.555Z,49.20
2018-04-26T11:24:39.029Z,48.80
2018-04-26T11:27:06.538Z,48.00
2018-04-26T11:29:34.014Z,48.50
2018-04-26T11:32:03.495Z,49.40
2018-04-26T11:34:30.977Z,49.40
2018-04-26T11:36:58.504Z,48.20
2018-04-26T11:39:25.998Z,48.80
2018-04-26T11:41:53.514Z,49.30
2018-04-26T11:44:20.989Z,49.70
2018-04-26T11:46:48.504Z,49.80
2018-04-26T11:49:15.994Z,46.60
2018-04-26T11:51:43.503Z,46.40
2018-04-26T11:54:10.998Z,44.50
2018-04-26T11:56:38.481Z,42.80
2018-04-26T11:59:06.001Z,41.40
2018-04-26T12:01:33.485Z,42.80
2018-04-26T12:04:00.990Z,42.90
2018-04-26T12:06:28.470Z,43.80
2018-04-26T12:08:55.964Z,44.30
2018-04-26T12:11:23.448Z,44.30
2018-04-26T12:13:50.950Z,44.60
2018-04-26T12:16:19.269Z,46.00
2018-04-26T12:18:46.779Z,45.90
2018-04-26T12:21:14.258Z,46.00
2018-04-26T12:23:41.762Z,45.00
2018-04-26T12:26:09.245Z,45.20
2018-04-26T12:28:36.772Z,44.80
2018-04-26T12:31:04.251Z,43.80
2018-04-26T12:33:31.758Z,43.80
2018-04-26T12:35:59.269Z,44.40
2018-04-26T12:38:26.755Z,44.00
2018-04-26T12:40:54.261Z,44.20
2018-04-26T12:43:21.752Z,42.20
2018-04-26T12:45:49.249Z,42.10
2018-04-26T12:48:16.727Z,43.60
2018-04-26T12:50:44.226Z,43.70
2018-04-26T12:53:11.707Z,43.20
2018-04-26T12:55:39.988Z,42.60
2018-04-26T12:58:07.525Z,42.60
2018-04-26T13:00:34.958Z,41.50
2018-04-26T13:03:02.462Z,41.40
2018-04-26T13:05:29.941Z,41.90
2018-04-26T13:07:57.489Z,42.80
2018-04-26T13:10:25.702Z,43.20
2018-04-26T13:12:53.262Z,43.30
2018-04-26T13:15:20.729Z,42.40
2018-04-26T13:17:48.225Z,43.30
2018-04-26T13:20:15.701Z,42.80
2018-04-26T13:22:43.212Z,41.50
2018-04-26T13:25:10.702Z,41.10
2018-04-26T13:27:39.821Z,40.70
2018-04-26T13:30:07.300Z,42.30
2018-04-26T13:32:36.518Z,42.00
2018-04-26T13:35:03.996Z,41.30
2018-04-26T13:37:31.514Z,41.20
2018-04-26T13:39:59.018Z,42.50
2018-04-26T13:42:26.518Z,43.00
2018-04-26T13:44:54.034Z,42.40
2018-04-26T13:47:21.515Z,41.70
2018-04-26T13:49:49.038Z,42.00
2018-04-26T13:52:16.526Z,41.50
2018-04-26T13:54:44.046Z,41.10
2018-04-26T13:57:11.547Z,40.10
2018-04-26T13:59:39.050Z,40.20
2018-04-26T14:02:06.543Z,41.70
2018-04-26T14:04:34.046Z,42.40
2018-04-26T14:07:01.529Z,40.60
2018-04-26T14:09:29.044Z,41.70
2018-04-26T14:11:56.525Z,40.80
2018-04-26T14:14:24.033Z,38.80
2018-04-26T14:16:51.515Z,39.00
2018-04-26T14:19:19.464Z,37.40
2018-04-26T14:21:47.247Z,36.90
2018-04-26T14:24:14.726Z,37.20
2018-04-26T14:26:43.918Z,37.60
2018-04-26T14:29:11.423Z,37.70
2018-04-26T14:31:40.391Z,37.70
2018-04-26T14:34:07.890Z,37.90
2018-04-26T14:36:35.437Z,38.70
2018-04-26T14:39:02.934Z,40.10
2018-04-26T14:41:30.443Z,41.10
2018-04-26T14:43:57.944Z,40.90
2018-04-26T14:46:25.441Z,42.00
2018-04-26T14:48:52.952Z,42.30
2018-04-26T14:51:21.244Z,43.20
2018-04-26T14:53:48.728Z,43.10
2018-04-26T14:56:16.206Z,44.90
2018-04-26T14:58:43.709Z,47.80
2018-04-26T15:01:11.185Z,49.10
2018-04-26T15:03:38.695Z,50.00
2018-04-26T15:06:06.964Z,52.80
2018-04-26T15:08:34.466Z,52.90
2018-04-26T15:11:01.958Z,50.80
2018-04-26T15:13:29.466Z,49.60
2018-04-26T15:15:56.950Z,47.90
2018-04-26T15:18:24.446Z,45.90
2018-04-26T15:20:52.697Z,44.80
2018-04-26T15:23:20.201Z,44.80
2018-04-26T15:25:47.705Z,44.60
2018-04-26T15:28:15.201Z,44.40
2018-04-26T15:30:42.717Z,45.90
2018-04-26T15:33:10.206Z,46.60
2018-04-26T15:35:37.706Z,47.30
2018-04-26T15:38:05.209Z,47.40
2018-04-26T15:40:32.718Z,49.00
2018-04-26T15:43:00.199Z,47.20
2018-04-26T15:45:27.714Z,46.50
2018-04-26T15:47:55.209Z,47.60
2018-04-26T15:53:39.255Z,47.30
2018-04-26T15:56:14.521Z,47.80
2018-04-26T15:59:03.799Z,48.10
2018-04-26T16:05:03.923Z,50.70
2018-04-26T16:07:49.890Z,50.60
2018-04-26T16:10:29.095Z,44.80
2018-04-26T16:13:14.245Z,44.90
2018-04-26T16:15:59.166Z,44.40
2018-04-26T16:18:43.617Z,44.10
2018-04-26T16:21:28.630Z,45.00
2018-04-26T16:24:26.010Z,44.50
2018-04-26T16:30:18.922Z,42.50
2018-04-26T16:33:05.141Z,43.50
2018-04-26T16:35:44.429Z,45.30
2018-04-26T16:38:24.449Z,45.70
2018-04-26T16:40:51.940Z,45.60
2018-04-26T16:43:19.482Z,44.80
2018-04-26T16:45:46.979Z,43.80
2018-04-26T16:48:14.460Z,44.00
2018-04-26T16:50:41.970Z,44.00
2018-04-26T16:53:09.455Z,44.30
2018-04-26T16:55:36.970Z,44.80
2018-04-26T16:58:04.458Z,44.60
2018-04-26T17:00:31.966Z,45.20
2018-04-26T17:02:59.499Z,45.20
2018-04-26T17:05:26.998Z,45.50
2018-04-26T17:07:54.485Z,46.20
2018-04-26T17:10:21.990Z,46.60
2018-04-26T17:12:49.475Z,47.80
2018-04-26T17:15:16.980Z,47.70
2018-04-26T17:17:44.469Z,48.10
2018-04-26T17:20:11.990Z,48.50
2018-04-26T17:22:39.486Z,48.80
2018-04-26T17:25:07.734Z,48.80
2018-04-26T17:27:36.343Z,48.80
2018-04-26T17:30:03.834Z,49.10
2018-04-26T17:32:33.644Z,50.30
2018-04-26T17:35:01.128Z,50.20
2018-04-26T17:37:29.856Z,51.30
2018-04-26T17:39:57.335Z,51.20
2018-04-26T17:42:24.938Z,51.70
2018-04-26T17:44:52.429Z,52.90
2018-04-26T17:47:19.933Z,52.00
2018-04-26T17:49:47.426Z,52.10
2018-04-26T17:52:14.928Z,51.90
2018-04-26T17:54:42.426Z,52.50
2018-04-26T17:57:10.701Z,52.70
2018-04-26T17:59:38.198Z,52.70
2018-04-26T18:02:05.686Z,53.00
2018-04-26T18:04:33.190Z,52.60
2018-04-26T18:07:00.677Z,52.80
2018-04-26T18:09:28.276Z,53.00
2018-04-26T18:11:55.704Z,53.40
2018-04-26T18:14:23.211Z,53.50
2018-04-26T18:16:50.689Z,54.00
2018-04-26T18:19:18.167Z,54.00
2018-04-26T18:21:46.437Z,55.00
2018-04-26T18:24:13.919Z,55.10
2018-04-26T18:26:42.194Z,55.80
2018-04-26T18:29:09.674Z,55.80
2018-04-26T18:31:39.241Z,56.30
2018-04-26T18:34:06.730Z,56.30
2018-04-26T18:36:34.254Z,56.10
2018-04-26T18:39:01.906Z,56.80
2018-04-26T18:41:29.389Z,57.70
2018-04-26T18:43:57.661Z,59.30
2018-04-26T18:46:25.147Z,59.30
2018-04-26T18:48:52.653Z,59.60
2018-04-26T18:51:20.232Z,60.40
2018-04-26T18:53:47.661Z,60.80
2018-04-26T18:56:15.148Z,60.40
2018-04-26T18:58:42.674Z,61.00
2018-04-26T19:01:10.158Z,61.20
2018-04-26T19:03:37.701Z,62.50
2018-04-26T19:06:05.182Z,63.50
2018-04-26T19:08:32.661Z,64.80
2018-04-26T19:11:00.218Z,66.00
2018-04-26T19:13:27.713Z,66.70
2018-04-26T19:15:55.317Z,67.90
2018-04-26T19:18:22.815Z,68.90
2018-04-26T19:20:50.321Z,70.00
2018-04-26T19:23:17.802Z,70.50
2018-04-26T19:25:46.053Z,71.30
2018-04-26T19:28:13.757Z,71.90
2018-04-26T19:30:41.269Z,72.30
2018-04-26T19:33:08.922Z,72.60
2018-04-26T19:35:37.173Z,73.80
2018-04-26T19:38:04.674Z,73.70
2018-04-26T19:40:32.178Z,74.20
2018-04-26T19:42:59.681Z,75.40
2018-04-26T19:45:27.157Z,76.50
2018-04-26T19:47:54.659Z,77.30
2018-04-26T19:50:22.140Z,78.40
2018-04-26T19:52:50.442Z,79.60
2018-04-26T19:55:18.685Z,80.00
2018-04-26T19:57:46.240Z,80.10
2018-04-26T20:00:13.683Z,80.60
2018-04-26T20:02:41.181Z,80.80
2018-04-26T20:05:08.653Z,81.50
2018-04-26T20:07:36.169Z,81.10
2018-04-26T20:10:03.654Z,81.20
2018-04-26T20:12:31.942Z,82.20
2018-04-26T20:14:59.481Z,82.20
2018-04-26T20:17:26.998Z,82.80
2018-04-26T20:19:54.720Z,82.90
2018-04-26T20:22:22.205Z,83.20
2018-04-26T20:24:49.848Z,82.90
2018-04-26T20:27:17.363Z,82.80
2018-04-26T20:29:44.987Z,82.50
2018-04-26T20:32:12.470Z,82.80
2018-04-26T20:34:39.977Z,83.50
2018-04-26T20:37:07.453Z,84.20
2018-04-26T20:39:35.734Z,84.90
2018-04-26T20:42:03.382Z,84.90
2018-04-26T20:44:43.415Z,85.00
2018-04-26T20:47:10.902Z,85.00
2018-04-26T20:49:38.412Z,85.50
2018-04-26T20:52:05.887Z,85.80
2018-04-26T20:54:33.391Z,86.50
2018-04-26T20:57:00.887Z,87.00
2018-04-26T20:59:28.357Z,87.40
2018-04-26T21:01:55.880Z,88.30
2018-04-26T21:04:23.370Z,89.10
2018-04-26T21:06:51.633Z,90.40
2018-04-26T21:09:19.110Z,90.40
2018-04-26T21:11:46.604Z,90.50
2018-04-26T21:14:14.126Z,90.90
2018-04-26T21:16:41.609Z,91.20
2018-04-26T21:19:09.086Z,91.40
2018-04-26T21:21:36.596Z,91.80
2018-04-26T21:24:04.074Z,91.90
2018-04-26T21:26:31.558Z,92.10
2018-04-26T21:28:59.066Z,92.20
2018-04-26T21:31:26.542Z,92.30
2018-04-26T21:33:54.053Z,92.50
2018-04-26T21:36:21.534Z,92.90
2018-04-26T21:38:49.030Z,92.90
2018-04-26T21:41:16.525Z,93.00
2018-04-26T21:43:44.022Z,93.40
2018-04-26T21:46:12.274Z,93.70
2018-04-26T21:48:39.754Z,93.80
2018-04-26T21:51:12.981Z,94.10
2018-04-26T21:53:46.045Z,94.30
2018-04-26T21:56:19.209Z,94.40
2018-04-26T21:58:52.312Z,94.90
2018-04-26T22:01:25.625Z,95.10
2018-04-26T22:03:58.873Z,94.90
2018-04-26T22:06:26.424Z,95.10
2018-04-26T22:08:53.901Z,95.40
2018-04-26T22:11:21.394Z,95.50
2018-04-26T22:13:48.865Z,96.00
2018-04-26T22:16:16.346Z,96.10
2018-04-26T22:18:43.859Z,96.40
2018-04-26T22:21:11.347Z,96.60
2018-04-26T22:23:38.842Z,96.70
2018-04-26T22:26:06.325Z,97.00
2018-04-26T22:28:33.841Z,97.30
2018-04-26T22:31:01.330Z,97.70
2018-04-26T22:33:28.832Z,97.60
2018-04-26T22:35:56.305Z,97.40
2018-04-26T22:38:23.803Z,97.50
2018-04-26T22:40:52.049Z,97.90
2018-04-26T22:43:19.521Z,97.90
2018-04-26T22:45:47.013Z,98.00
2018-04-26T22:48:14.490Z,98.10
2018-04-26T22:50:42.761Z,98.30
2018-04-26T22:53:10.242Z,98.30
2018-04-26T22:55:37.729Z,98.40
2018-04-26T22:58:05.211Z,98.60
2018-04-26T23:00:32.706Z,98.60
2018-04-26T23:03:00.193Z,98.70
2018-04-26T23:05:27.690Z,98.80
2018-04-26T23:07:55.177Z,99.00
2018-04-26T23:10:23.420Z,98.90
2018-04-26T23:12:50.925Z,98.90
2018-04-26T23:15:18.410Z,98.90
2018-04-26T23:17:46.665Z,99.30
2018-04-26T23:20:14.144Z,99.20
2018-04-26T23:22:41.645Z,99.30
2018-04-26T23:25:09.889Z,99.50
2018-04-26T23:27:40.394Z,99.50
2018-04-26T23:30:07.874Z,99.70
2018-04-26T23:32:36.711Z,99.70
2018-04-26T23:35:04.221Z,99.80
2018-04-26T23:37:31.710Z,99.90
2018-04-26T23:39:59.202Z,99.90
2018-04-26T23:42:26.682Z,99.90
2018-04-26T23:44:54.181Z,99.90
2018-04-26T23:47:21.658Z,99.90
2018-04-26T23:49:49.165Z,99.90
2018-04-26T23:52:16.702Z,99.90
2018-04-26T23:54:44.165Z,99.90
2018-04-26T23:57:11.661Z,99.90
2018-04-26T23:59:39.938Z,99.90
